sensor_id;sensor_type;location;lat;lon;timestamp;P1;durP1;ratioP1;P2;durP2;ratioP2
7845;SDS011;3968;51.424;6.788;2023-02-17T00:00:52;21.63;;;15.40;;
7845;SDS011;3968;51.424;6.788;2023-02-17T00:03:18;19.70;;;13.77;;
7845;SDS011;3968;51.424;6.788;2023-02-17T00:05:44;18.30;;;14.27;;
7845;SDS011;3968;51.424;6.788;2023-02-17T00:08:09;19.77;;;14.17;;
7845;SDS011;3968;51.424;6.788;2023-02-17T00:10:35;16.20;;;13.33;;
7845;SDS011;3968;51.424;6.788;2023-02-17T00:13:01;18.13;;;13.77;;
7845;SDS011;3968;51.424;6.788;2023-02-17T00:15:27;18.80;;;14.50;;
7845;SDS011;3968;51.424;6.788;2023-02-17T00:17:52;16.63;;;13.33;;
7845;SDS011;3968;51.424;6.788;2023-02-17T00:20:18;17.10;;;13.10;;
7845;SDS011;3968;51.424;6.788;2023-02-17T00:22:44;16.87;;;12.83;;
7845;SDS011;3968;51.424;6.788;2023-02-17T00:25:09;13.73;;;10.83;;
7845;SDS011;3968;51.424;6.788;2023-02-17T00:27:35;15.70;;;11.53;;
7845;SDS011;3968;51.424;6.788;2023-02-17T00:30:00;17.03;;;12.17;;
7845;SDS011;3968;51.424;6.788;2023-02-17T00:32:26;15.33;;;11.47;;
7845;SDS011;3968;51.424;6.788;2023-02-17T00:34:51;12.53;;;10.53;;
7845;SDS011;3968;51.424;6.788;2023-02-17T00:37:20;16.70;;;11.37;;
7845;SDS011;3968;51.424;6.788;2023-02-17T00:39:45;13.87;;;10.97;;
7845;SDS011;3968;51.424;6.788;2023-02-17T00:42:11;13.83;;;11.27;;
7845;SDS011;3968;51.424;6.788;2023-02-17T00:44:37;12.77;;;10.83;;
7845;SDS011;3968;51.424;6.788;2023-02-17T00:47:02;14.33;;;10.90;;
7845;SDS011;3968;51.424;6.788;2023-02-17T00:49:28;13.17;;;10.73;;
7845;SDS011;3968;51.424;6.788;2023-02-17T00:51:54;12.50;;;10.27;;
7845;SDS011;3968;51.424;6.788;2023-02-17T00:54:22;12.53;;;10.70;;
7845;SDS011;3968;51.424;6.788;2023-02-17T00:56:48;13.70;;;11.40;;
7845;SDS011;3968;51.424;6.788;2023-02-17T00:59:13;13.17;;;11.77;;
7845;SDS011;3968;51.424;6.788;2023-02-17T01:01:39;11.80;;;9.83;;
7845;SDS011;3968;51.424;6.788;2023-02-17T01:04:05;14.03;;;11.23;;
7845;SDS011;3968;51.424;6.788;2023-02-17T01:06:32;15.73;;;12.00;;
7845;SDS011;3968;51.424;6.788;2023-02-17T01:09:00;15.07;;;10.23;;
7845;SDS011;3968;51.424;6.788;2023-02-17T01:11:28;13.83;;;10.40;;
7845;SDS011;3968;51.424;6.788;2023-02-17T01:13:55;11.80;;;10.60;;
7845;SDS011;3968;51.424;6.788;2023-02-17T01:16:22;13.53;;;10.07;;
7845;SDS011;3968;51.424;6.788;2023-02-17T01:18:49;13.03;;;10.47;;
7845;SDS011;3968;51.424;6.788;2023-02-17T01:21:19;13.97;;;10.63;;
7845;SDS011;3968;51.424;6.788;2023-02-17T01:23:52;15.30;;;11.40;;
7845;SDS011;3968;51.424;6.788;2023-02-17T01:26:21;13.37;;;11.43;;
7845;SDS011;3968;51.424;6.788;2023-02-17T01:28:49;15.93;;;12.40;;
7845;SDS011;3968;51.424;6.788;2023-02-17T01:31:16;14.23;;;10.90;;
7845;SDS011;3968;51.424;6.788;2023-02-17T01:33:42;18.13;;;11.73;;
7845;SDS011;3968;51.424;6.788;2023-02-17T01:36:09;13.67;;;11.70;;
7845;SDS011;3968;51.424;6.788;2023-02-17T01:38:36;13.50;;;10.77;;
7845;SDS011;3968;51.424;6.788;2023-02-17T01:41:03;13.97;;;11.23;;
7845;SDS011;3968;51.424;6.788;2023-02-17T01:43:29;15.97;;;12.03;;
7845;SDS011;3968;51.424;6.788;2023-02-17T01:45:56;16.53;;;10.93;;
7845;SDS011;3968;51.424;6.788;2023-02-17T01:48:27;15.53;;;11.30;;
7845;SDS011;3968;51.424;6.788;2023-02-17T01:51:04;15.37;;;10.70;;
7845;SDS011;3968;51.424;6.788;2023-02-17T01:53:41;12.53;;;10.97;;
7845;SDS011;3968;51.424;6.788;2023-02-17T01:56:15;14.80;;;11.00;;
7845;SDS011;3968;51.424;6.788;2023-02-17T01:58:43;11.27;;;10.07;;
7845;SDS011;3968;51.424;6.788;2023-02-17T02:01:14;13.40;;;11.13;;
7845;SDS011;3968;51.424;6.788;2023-02-17T02:03:40;14.67;;;10.53;;
7845;SDS011;3968;51.424;6.788;2023-02-17T02:06:11;14.53;;;11.27;;
7845;SDS011;3968;51.424;6.788;2023-02-17T02:08:50;14.00;;;10.53;;
7845;SDS011;3968;51.424;6.788;2023-02-17T02:11:37;15.10;;;11.40;;
7845;SDS011;3968;51.424;6.788;2023-02-17T02:14:03;14.17;;;11.60;;
7845;SDS011;3968;51.424;6.788;2023-02-17T02:19:06;13.70;;;11.17;;
7845;SDS011;3968;51.424;6.788;2023-02-17T02:21:48;16.40;;;12.60;;
7845;SDS011;3968;51.424;6.788;2023-02-17T02:24:33;13.83;;;11.30;;
7845;SDS011;3968;51.424;6.788;2023-02-17T02:35:54;10.90;;;9.80;;
7845;SDS011;3968;51.424;6.788;2023-02-17T02:38:36;10.37;;;9.07;;
7845;SDS011;3968;51.424;6.788;2023-02-17T02:43:54;10.43;;;9.40;;
7845;SDS011;3968;51.424;6.788;2023-02-17T02:46:20;14.07;;;9.97;;
7845;SDS011;3968;51.424;6.788;2023-02-17T02:48:45;14.23;;;8.93;;
7845;SDS011;3968;51.424;6.788;2023-02-17T02:58:57;13.73;;;9.23;;
7845;SDS011;3968;51.424;6.788;2023-02-17T03:07:02;13.43;;;9.63;;
7845;SDS011;3968;51.424;6.788;2023-02-17T03:09:49;13.30;;;9.43;;
7845;SDS011;3968;51.424;6.788;2023-02-17T03:12:16;11.23;;;9.00;;
7845;SDS011;3968;51.424;6.788;2023-02-17T03:14:43;9.70;;;8.70;;
7845;SDS011;3968;51.424;6.788;2023-02-17T03:17:09;9.27;;;8.27;;
7845;SDS011;3968;51.424;6.788;2023-02-17T03:19:35;10.67;;;9.57;;
7845;SDS011;3968;51.424;6.788;2023-02-17T03:22:06;10.33;;;9.20;;
7845;SDS011;3968;51.424;6.788;2023-02-17T03:24:39;10.83;;;9.47;;
7845;SDS011;3968;51.424;6.788;2023-02-17T03:27:04;10.53;;;9.40;;
7845;SDS011;3968;51.424;6.788;2023-02-17T03:29:30;10.20;;;9.20;;
7845;SDS011;3968;51.424;6.788;2023-02-17T03:31:56;10.23;;;9.07;;
7845;SDS011;3968;51.424;6.788;2023-02-17T03:34:21;11.23;;;9.80;;
7845;SDS011;3968;51.424;6.788;2023-02-17T03:36:47;10.20;;;9.00;;
7845;SDS011;3968;51.424;6.788;2023-02-17T03:39:12;9.37;;;8.43;;
7845;SDS011;3968;51.424;6.788;2023-02-17T03:41:38;9.63;;;8.63;;
7845;SDS011;3968;51.424;6.788;2023-02-17T03:44:03;9.47;;;8.07;;
7845;SDS011;3968;51.424;6.788;2023-02-17T03:46:29;11.30;;;9.63;;
7845;SDS011;3968;51.424;6.788;2023-02-17T03:48:55;9.27;;;8.27;;
7845;SDS011;3968;51.424;6.788;2023-02-17T03:51:21;9.60;;;8.60;;
7845;SDS011;3968;51.424;6.788;2023-02-17T03:53:48;9.47;;;7.93;;
7845;SDS011;3968;51.424;6.788;2023-02-17T03:56:14;9.57;;;8.50;;
7845;SDS011;3968;51.424;6.788;2023-02-17T03:58:41;10.20;;;8.63;;
7845;SDS011;3968;51.424;6.788;2023-02-17T04:01:07;8.97;;;8.07;;
7845;SDS011;3968;51.424;6.788;2023-02-17T04:03:34;11.77;;;10.17;;
7845;SDS011;3968;51.424;6.788;2023-02-17T04:06:00;10.97;;;9.17;;
7845;SDS011;3968;51.424;6.788;2023-02-17T04:08:26;9.80;;;8.77;;
7845;SDS011;3968;51.424;6.788;2023-02-17T04:10:53;10.87;;;8.27;;
7845;SDS011;3968;51.424;6.788;2023-02-17T04:13:23;10.43;;;8.63;;
7845;SDS011;3968;51.424;6.788;2023-02-17T04:15:49;10.47;;;8.13;;
7845;SDS011;3968;51.424;6.788;2023-02-17T04:18:15;9.30;;;8.40;;
7845;SDS011;3968;51.424;6.788;2023-02-17T04:20:42;8.97;;;8.07;;
7845;SDS011;3968;51.424;6.788;2023-02-17T04:23:08;8.70;;;7.80;;
7845;SDS011;3968;51.424;6.788;2023-02-17T04:25:35;9.40;;;8.20;;
7845;SDS011;3968;51.424;6.788;2023-02-17T04:28:02;9.10;;;8.23;;
7845;SDS011;3968;51.424;6.788;2023-02-17T04:30:28;9.20;;;8.30;;
7845;SDS011;3968;51.424;6.788;2023-02-17T04:32:54;10.00;;;9.00;;
7845;SDS011;3968;51.424;6.788;2023-02-17T04:35:20;8.87;;;7.97;;
7845;SDS011;3968;51.424;6.788;2023-02-17T04:37:47;9.37;;;8.30;;
7845;SDS011;3968;51.424;6.788;2023-02-17T04:40:12;8.77;;;7.87;;
7845;SDS011;3968;51.424;6.788;2023-02-17T04:42:38;8.63;;;7.80;;
7845;SDS011;3968;51.424;6.788;2023-02-17T04:45:04;8.60;;;7.80;;
7845;SDS011;3968;51.424;6.788;2023-02-17T04:47:31;10.33;;;9.17;;
7845;SDS011;3968;51.424;6.788;2023-02-17T04:49:57;8.77;;;7.87;;
7845;SDS011;3968;51.424;6.788;2023-02-17T04:52:22;9.43;;;8.40;;
7845;SDS011;3968;51.424;6.788;2023-02-17T04:54:48;10.43;;;9.20;;
7845;SDS011;3968;51.424;6.788;2023-02-17T04:57:14;8.23;;;7.43;;
7845;SDS011;3968;51.424;6.788;2023-02-17T04:59:39;10.23;;;8.23;;
7845;SDS011;3968;51.424;6.788;2023-02-17T05:02:05;8.17;;;7.33;;
7845;SDS011;3968;51.424;6.788;2023-02-17T05:04:30;8.87;;;7.40;;
7845;SDS011;3968;51.424;6.788;2023-02-17T05:06:56;8.67;;;7.23;;
7845;SDS011;3968;51.424;6.788;2023-02-17T05:09:22;7.87;;;7.10;;
7845;SDS011;3968;51.424;6.788;2023-02-17T05:11:48;7.93;;;6.93;;
7845;SDS011;3968;51.424;6.788;2023-02-17T05:14:13;7.23;;;6.53;;
7845;SDS011;3968;51.424;6.788;2023-02-17T05:16:39;8.63;;;7.13;;
7845;SDS011;3968;51.424;6.788;2023-02-17T05:19:04;7.67;;;6.87;;
7845;SDS011;3968;51.424;6.788;2023-02-17T05:21:30;7.63;;;6.77;;
7845;SDS011;3968;51.424;6.788;2023-02-17T05:23:56;6.70;;;6.03;;
7845;SDS011;3968;51.424;6.788;2023-02-17T05:26:22;6.60;;;6.00;;
7845;SDS011;3968;51.424;6.788;2023-02-17T05:28:48;6.87;;;5.70;;
7845;SDS011;3968;51.424;6.788;2023-02-17T05:31:13;6.80;;;6.13;;
7845;SDS011;3968;51.424;6.788;2023-02-17T05:33:39;6.97;;;6.23;;
7845;SDS011;3968;51.424;6.788;2023-02-17T05:36:05;6.47;;;5.87;;
7845;SDS011;3968;51.424;6.788;2023-02-17T05:38:33;5.80;;;5.13;;
7845;SDS011;3968;51.424;6.788;2023-02-17T05:40:59;7.13;;;6.43;;
7845;SDS011;3968;51.424;6.788;2023-02-17T05:43:25;7.53;;;6.73;;
7845;SDS011;3968;51.424;6.788;2023-02-17T05:45:50;6.70;;;6.07;;
7845;SDS011;3968;51.424;6.788;2023-02-17T05:48:16;7.63;;;6.57;;
7845;SDS011;3968;51.424;6.788;2023-02-17T05:50:42;7.23;;;6.53;;
7845;SDS011;3968;51.424;6.788;2023-02-17T05:53:07;7.80;;;7.03;;
7845;SDS011;3968;51.424;6.788;2023-02-17T05:55:33;8.00;;;7.20;;
7845;SDS011;3968;51.424;6.788;2023-02-17T05:57:58;9.03;;;8.13;;
7845;SDS011;3968;51.424;6.788;2023-02-17T06:00:24;7.57;;;6.60;;
7845;SDS011;3968;51.424;6.788;2023-02-17T06:02:50;7.77;;;6.77;;
7845;SDS011;3968;51.424;6.788;2023-02-17T06:05:16;7.73;;;6.83;;
7845;SDS011;3968;51.424;6.788;2023-02-17T06:07:41;10.37;;;7.73;;
7845;SDS011;3968;51.424;6.788;2023-02-17T06:10:07;7.53;;;6.67;;
7845;SDS011;3968;51.424;6.788;2023-02-17T06:12:33;7.23;;;6.50;;
7845;SDS011;3968;51.424;6.788;2023-02-17T06:14:59;6.83;;;6.23;;
7845;SDS011;3968;51.424;6.788;2023-02-17T06:17:25;8.80;;;6.87;;
7845;SDS011;3968;51.424;6.788;2023-02-17T06:19:50;8.53;;;7.63;;
7845;SDS011;3968;51.424;6.788;2023-02-17T06:22:16;8.50;;;7.00;;
7845;SDS011;3968;51.424;6.788;2023-02-17T06:24:41;8.23;;;7.33;;
7845;SDS011;3968;51.424;6.788;2023-02-17T06:27:07;9.30;;;8.40;;
7845;SDS011;3968;51.424;6.788;2023-02-17T06:29:33;9.80;;;8.80;;
7845;SDS011;3968;51.424;6.788;2023-02-17T06:31:58;9.80;;;8.80;;
7845;SDS011;3968;51.424;6.788;2023-02-17T06:34:24;9.67;;;8.73;;
7845;SDS011;3968;51.424;6.788;2023-02-17T06:36:50;10.37;;;9.23;;
7845;SDS011;3968;51.424;6.788;2023-02-17T06:39:15;10.57;;;9.10;;
7845;SDS011;3968;51.424;6.788;2023-02-17T06:41:41;10.80;;;9.10;;
7845;SDS011;3968;51.424;6.788;2023-02-17T06:44:07;11.77;;;9.67;;
7845;SDS011;3968;51.424;6.788;2023-02-17T06:46:32;10.43;;;9.33;;
7845;SDS011;3968;51.424;6.788;2023-02-17T06:48:58;11.73;;;10.53;;
7845;SDS011;3968;51.424;6.788;2023-02-17T06:51:25;9.47;;;8.47;;
7845;SDS011;3968;51.424;6.788;2023-02-17T06:53:51;12.20;;;9.67;;
7845;SDS011;3968;51.424;6.788;2023-02-17T06:56:17;10.00;;;8.83;;
7845;SDS011;3968;51.424;6.788;2023-02-17T06:58:43;10.20;;;9.17;;
7845;SDS011;3968;51.424;6.788;2023-02-17T07:01:15;10.67;;;9.57;;
7845;SDS011;3968;51.424;6.788;2023-02-17T07:03:43;10.13;;;8.80;;
7845;SDS011;3968;51.424;6.788;2023-02-17T07:06:08;11.50;;;9.03;;
7845;SDS011;3968;51.424;6.788;2023-02-17T07:08:34;10.60;;;8.60;;
7845;SDS011;3968;51.424;6.788;2023-02-17T07:11:03;11.90;;;8.20;;
7845;SDS011;3968;51.424;6.788;2023-02-17T07:13:33;8.77;;;7.87;;
7845;SDS011;3968;51.424;6.788;2023-02-17T07:15:59;9.00;;;7.47;;
7845;SDS011;3968;51.424;6.788;2023-02-17T07:18:25;8.03;;;7.30;;
7845;SDS011;3968;51.424;6.788;2023-02-17T07:20:51;11.00;;;7.77;;
7845;SDS011;3968;51.424;6.788;2023-02-17T07:23:16;10.63;;;9.00;;
7845;SDS011;3968;51.424;6.788;2023-02-17T07:25:42;8.00;;;7.30;;
7845;SDS011;3968;51.424;6.788;2023-02-17T07:28:08;8.30;;;7.40;;
7845;SDS011;3968;51.424;6.788;2023-02-17T07:30:37;9.93;;;8.27;;
7845;SDS011;3968;51.424;6.788;2023-02-17T07:33:03;8.83;;;7.70;;
7845;SDS011;3968;51.424;6.788;2023-02-17T07:35:29;9.00;;;7.50;;
7845;SDS011;3968;51.424;6.788;2023-02-17T07:37:58;8.27;;;7.37;;
7845;SDS011;3968;51.424;6.788;2023-02-17T07:40:25;8.70;;;7.80;;
7845;SDS011;3968;51.424;6.788;2023-02-17T07:42:51;9.83;;;8.20;;
7845;SDS011;3968;51.424;6.788;2023-02-17T07:45:18;8.93;;;8.13;;
7845;SDS011;3968;51.424;6.788;2023-02-17T07:47:43;10.27;;;8.53;;
7845;SDS011;3968;51.424;6.788;2023-02-17T07:50:09;8.73;;;7.53;;
7845;SDS011;3968;51.424;6.788;2023-02-17T07:52:35;8.47;;;7.57;;
7845;SDS011;3968;51.424;6.788;2023-02-17T07:55:01;9.00;;;7.93;;
7845;SDS011;3968;51.424;6.788;2023-02-17T07:57:27;8.93;;;8.03;;
7845;SDS011;3968;51.424;6.788;2023-02-17T07:59:53;8.30;;;7.43;;
7845;SDS011;3968;51.424;6.788;2023-02-17T08:02:19;9.73;;;8.27;;
7845;SDS011;3968;51.424;6.788;2023-02-17T08:04:45;8.63;;;7.73;;
7845;SDS011;3968;51.424;6.788;2023-02-17T08:07:10;9.20;;;7.47;;
7845;SDS011;3968;51.424;6.788;2023-02-17T08:09:36;8.27;;;7.47;;
7845;SDS011;3968;51.424;6.788;2023-02-17T08:12:20;8.73;;;7.67;;
7845;SDS011;3968;51.424;6.788;2023-02-17T08:15:05;8.57;;;7.77;;
7845;SDS011;3968;51.424;6.788;2023-02-17T08:17:33;8.60;;;7.70;;
7845;SDS011;3968;51.424;6.788;2023-02-17T08:19:59;10.27;;;8.60;;
7845;SDS011;3968;51.424;6.788;2023-02-17T08:22:25;9.40;;;8.30;;
7845;SDS011;3968;51.424;6.788;2023-02-17T08:24:50;11.47;;;9.37;;
7845;SDS011;3968;51.424;6.788;2023-02-17T08:27:16;12.27;;;8.13;;
7845;SDS011;3968;51.424;6.788;2023-02-17T08:29:43;7.27;;;6.57;;
7845;SDS011;3968;51.424;6.788;2023-02-17T08:32:09;7.87;;;7.00;;
7845;SDS011;3968;51.424;6.788;2023-02-17T08:34:35;9.23;;;8.00;;
7845;SDS011;3968;51.424;6.788;2023-02-17T08:37:01;8.97;;;7.83;;
7845;SDS011;3968;51.424;6.788;2023-02-17T08:39:29;11.87;;;7.97;;
7845;SDS011;3968;51.424;6.788;2023-02-17T08:41:55;14.30;;;7.70;;
7845;SDS011;3968;51.424;6.788;2023-02-17T08:44:21;10.93;;;7.33;;
7845;SDS011;3968;51.424;6.788;2023-02-17T08:46:47;13.33;;;9.73;;
7845;SDS011;3968;51.424;6.788;2023-02-17T08:49:18;9.83;;;8.23;;
7845;SDS011;3968;51.424;6.788;2023-02-17T08:51:45;74.63;;;51.37;;
7845;SDS011;3968;51.424;6.788;2023-02-17T08:54:11;108.97;;;74.10;;
7845;SDS011;3968;51.424;6.788;2023-02-17T08:56:38;12.53;;;9.30;;
7845;SDS011;3968;51.424;6.788;2023-02-17T08:59:05;11.67;;;6.63;;
7845;SDS011;3968;51.424;6.788;2023-02-17T09:01:32;12.10;;;7.90;;
7845;SDS011;3968;51.424;6.788;2023-02-17T09:03:58;10.33;;;7.23;;
7845;SDS011;3968;51.424;6.788;2023-02-17T09:06:32;7.70;;;6.53;;
7845;SDS011;3968;51.424;6.788;2023-02-17T09:09:01;10.63;;;6.30;;
7845;SDS011;3968;51.424;6.788;2023-02-17T09:11:28;7.93;;;6.53;;
7845;SDS011;3968;51.424;6.788;2023-02-17T09:13:54;8.75;;;6.80;;
7845;SDS011;3968;51.424;6.788;2023-02-17T09:16:19;9.37;;;7.00;;
7845;SDS011;3968;51.424;6.788;2023-02-17T09:18:48;8.97;;;7.10;;
7845;SDS011;3968;51.424;6.788;2023-02-17T09:21:13;8.90;;;6.33;;
7845;SDS011;3968;51.424;6.788;2023-02-17T09:23:39;9.73;;;7.00;;
7845;SDS011;3968;51.424;6.788;2023-02-17T09:26:07;7.77;;;6.33;;
7845;SDS011;3968;51.424;6.788;2023-02-17T09:28:34;8.37;;;6.60;;
7845;SDS011;3968;51.424;6.788;2023-02-17T09:31:07;9.27;;;7.30;;
7845;SDS011;3968;51.424;6.788;2023-02-17T09:33:33;9.50;;;7.43;;
7845;SDS011;3968;51.424;6.788;2023-02-17T09:35:59;10.60;;;7.50;;
7845;SDS011;3968;51.424;6.788;2023-02-17T09:38:25;9.80;;;6.27;;
7845;SDS011;3968;51.424;6.788;2023-02-17T09:40:51;7.00;;;6.30;;
7845;SDS011;3968;51.424;6.788;2023-02-17T09:43:22;7.57;;;6.47;;
7845;SDS011;3968;51.424;6.788;2023-02-17T09:45:53;9.67;;;7.00;;
7845;SDS011;3968;51.424;6.788;2023-02-17T09:48:27;7.32;;;6.32;;
7845;SDS011;3968;51.424;6.788;2023-02-17T09:53:47;6.57;;;5.93;;
7845;SDS011;3968;51.424;6.788;2023-02-17T09:56:23;7.07;;;6.37;;
7845;SDS011;3968;51.424;6.788;2023-02-17T09:58:56;7.75;;;6.82;;
7845;SDS011;3968;51.424;6.788;2023-02-17T10:01:27;8.90;;;6.83;;
7845;SDS011;3968;51.424;6.788;2023-02-17T10:04:00;9.47;;;7.13;;
7845;SDS011;3968;51.424;6.788;2023-02-17T10:06:42;8.33;;;6.80;;
7845;SDS011;3968;51.424;6.788;2023-02-17T10:14:08;8.95;;;7.65;;
7845;SDS011;3968;51.424;6.788;2023-02-17T10:22:33;9.93;;;7.37;;
7845;SDS011;3968;51.424;6.788;2023-02-17T10:24:59;8.07;;;7.03;;
7845;SDS011;3968;51.424;6.788;2023-02-17T10:27:42;8.23;;;7.43;;
7845;SDS011;3968;51.424;6.788;2023-02-17T10:30:27;8.13;;;7.03;;
7845;SDS011;3968;51.424;6.788;2023-02-17T10:33:00;9.83;;;7.13;;
7845;SDS011;3968;51.424;6.788;2023-02-17T10:35:49;7.87;;;6.87;;
7845;SDS011;3968;51.424;6.788;2023-02-17T10:40:48;9.93;;;6.67;;
7845;SDS011;3968;51.424;6.788;2023-02-17T10:43:19;7.90;;;6.63;;
7845;SDS011;3968;51.424;6.788;2023-02-17T10:45:48;8.43;;;6.73;;
7845;SDS011;3968;51.424;6.788;2023-02-17T10:48:20;8.07;;;6.60;;
7845;SDS011;3968;51.424;6.788;2023-02-17T10:50:48;7.83;;;6.30;;
7845;SDS011;3968;51.424;6.788;2023-02-17T10:53:15;7.43;;;6.10;;
7845;SDS011;3968;51.424;6.788;2023-02-17T10:55:58;7.67;;;6.43;;
7845;SDS011;3968;51.424;6.788;2023-02-17T11:01:01;8.80;;;6.40;;
7845;SDS011;3968;51.424;6.788;2023-02-17T11:03:30;6.67;;;5.60;;
7845;SDS011;3968;51.424;6.788;2023-02-17T11:05:58;6.00;;;5.40;;
7845;SDS011;3968;51.424;6.788;2023-02-17T11:08:33;6.33;;;5.23;;
7845;SDS011;3968;51.424;6.788;2023-02-17T11:11:04;6.47;;;5.33;;
7845;SDS011;3968;51.424;6.788;2023-02-17T11:13:34;6.97;;;5.77;;
7845;SDS011;3968;51.424;6.788;2023-02-17T11:15:59;6.70;;;5.80;;
7845;SDS011;3968;51.424;6.788;2023-02-17T11:18:30;8.20;;;6.67;;
7845;SDS011;3968;51.424;6.788;2023-02-17T11:21:00;7.53;;;5.47;;
7845;SDS011;3968;51.424;6.788;2023-02-17T11:23:31;6.43;;;5.77;;
7845;SDS011;3968;51.424;6.788;2023-02-17T11:26:01;8.23;;;5.10;;
7845;SDS011;3968;51.424;6.788;2023-02-17T11:28:41;8.40;;;5.70;;
7845;SDS011;3968;51.424;6.788;2023-02-17T11:31:20;11.20;;;5.63;;
7845;SDS011;3968;51.424;6.788;2023-02-17T11:33:48;9.57;;;6.23;;
7845;SDS011;3968;51.424;6.788;2023-02-17T11:36:24;8.30;;;6.23;;
7845;SDS011;3968;51.424;6.788;2023-02-17T11:38:52;6.20;;;5.13;;
7845;SDS011;3968;51.424;6.788;2023-02-17T11:41:18;6.10;;;5.50;;
7845;SDS011;3968;51.424;6.788;2023-02-17T11:43:55;6.43;;;4.75;;
7845;SDS011;3968;51.424;6.788;2023-02-17T11:46:33;5.83;;;4.93;;
7845;SDS011;3968;51.424;6.788;2023-02-17T11:58:10;6.60;;;5.67;;
7845;SDS011;3968;51.424;6.788;2023-02-17T12:00:44;10.77;;;5.50;;
7845;SDS011;3968;51.424;6.788;2023-02-17T12:06:11;5.73;;;5.00;;
7845;SDS011;3968;51.424;6.788;2023-02-17T12:09:17;6.37;;;5.03;;
7845;SDS011;3968;51.424;6.788;2023-02-17T12:12:05;6.67;;;5.30;;
7845;SDS011;3968;51.424;6.788;2023-02-17T12:30:41;5.75;;;4.78;;
7845;SDS011;3968;51.424;6.788;2023-02-17T12:33:17;5.10;;;4.10;;
7845;SDS011;3968;51.424;6.788;2023-02-17T12:35:47;7.10;;;5.07;;
7845;SDS011;3968;51.424;6.788;2023-02-17T12:38:17;7.53;;;4.23;;
7845;SDS011;3968;51.424;6.788;2023-02-17T12:41:06;7.07;;;4.63;;
7845;SDS011;3968;51.424;6.788;2023-02-17T12:43:48;4.47;;;3.47;;
7845;SDS011;3968;51.424;6.788;2023-02-17T12:46:32;3.90;;;3.47;;
7845;SDS011;3968;51.424;6.788;2023-02-17T12:49:04;5.83;;;4.00;;
7845;SDS011;3968;51.424;6.788;2023-02-17T12:54:34;10.23;;;6.40;;
7845;SDS011;3968;51.424;6.788;2023-02-17T12:59:35;4.97;;;3.40;;
7845;SDS011;3968;51.424;6.788;2023-02-17T13:04:39;3.13;;;2.67;;
7845;SDS011;3968;51.424;6.788;2023-02-17T13:10:01;4.13;;;2.80;;
7845;SDS011;3968;51.424;6.788;2023-02-17T13:15:00;3.23;;;2.53;;
7845;SDS011;3968;51.424;6.788;2023-02-17T13:17:35;3.40;;;3.10;;
7845;SDS011;3968;51.424;6.788;2023-02-17T13:22:38;4.17;;;2.90;;
7845;SDS011;3968;51.424;6.788;2023-02-17T13:25:06;3.63;;;3.00;;
7845;SDS011;3968;51.424;6.788;2023-02-17T13:27:36;5.00;;;3.07;;
7845;SDS011;3968;51.424;6.788;2023-02-17T13:30:05;5.67;;;2.90;;
7845;SDS011;3968;51.424;6.788;2023-02-17T13:35:47;4.20;;;2.57;;
7845;SDS011;3968;51.424;6.788;2023-02-17T13:38:24;4.33;;;3.43;;
7845;SDS011;3968;51.424;6.788;2023-02-17T13:40:56;4.77;;;2.70;;
7845;SDS011;3968;51.424;6.788;2023-02-17T13:43:24;3.87;;;2.80;;
7845;SDS011;3968;51.424;6.788;2023-02-17T13:45:59;3.83;;;2.60;;
7845;SDS011;3968;51.424;6.788;2023-02-17T13:51:01;4.10;;;2.20;;
7845;SDS011;3968;51.424;6.788;2023-02-17T13:53:29;4.57;;;2.83;;
7845;SDS011;3968;51.424;6.788;2023-02-17T13:55:58;8.83;;;2.80;;
7845;SDS011;3968;51.424;6.788;2023-02-17T13:58:36;4.70;;;2.87;;
7845;SDS011;3968;51.424;6.788;2023-02-17T14:01:05;11.00;;;2.80;;
7845;SDS011;3968;51.424;6.788;2023-02-17T14:03:46;6.47;;;2.58;;
7845;SDS011;3968;51.424;6.788;2023-02-17T14:06:26;3.50;;;2.60;;
7845;SDS011;3968;51.424;6.788;2023-02-17T14:08:52;5.37;;;2.60;;
7845;SDS011;3968;51.424;6.788;2023-02-17T14:11:19;8.83;;;3.10;;
7845;SDS011;3968;51.424;6.788;2023-02-17T14:13:47;5.97;;;3.23;;
7845;SDS011;3968;51.424;6.788;2023-02-17T14:19:07;3.00;;;2.20;;
7845;SDS011;3968;51.424;6.788;2023-02-17T14:21:39;4.07;;;2.30;;
7845;SDS011;3968;51.424;6.788;2023-02-17T14:24:20;7.17;;;2.37;;
7845;SDS011;3968;51.424;6.788;2023-02-17T14:26:55;3.30;;;2.60;;
7845;SDS011;3968;51.424;6.788;2023-02-17T14:29:36;3.77;;;2.27;;
7845;SDS011;3968;51.424;6.788;2023-02-17T14:32:06;3.00;;;2.57;;
7845;SDS011;3968;51.424;6.788;2023-02-17T14:35:04;3.83;;;2.63;;
7845;SDS011;3968;51.424;6.788;2023-02-17T14:37:35;5.97;;;2.87;;
7845;SDS011;3968;51.424;6.788;2023-02-17T14:40:02;8.40;;;3.33;;
7845;SDS011;3968;51.424;6.788;2023-02-17T14:42:28;5.57;;;3.20;;
7845;SDS011;3968;51.424;6.788;2023-02-17T14:44:54;5.73;;;3.37;;
7845;SDS011;3968;51.424;6.788;2023-02-17T14:47:20;7.77;;;3.70;;
7845;SDS011;3968;51.424;6.788;2023-02-17T14:49:45;10.63;;;3.60;;
7845;SDS011;3968;51.424;6.788;2023-02-17T14:52:21;6.83;;;3.80;;
7845;SDS011;3968;51.424;6.788;2023-02-17T14:54:48;6.47;;;3.77;;
7845;SDS011;3968;51.424;6.788;2023-02-17T14:57:14;6.00;;;4.23;;
7845;SDS011;3968;51.424;6.788;2023-02-17T14:59:40;3.87;;;3.47;;
7845;SDS011;3968;51.424;6.788;2023-02-17T15:02:13;7.43;;;4.57;;
7845;SDS011;3968;51.424;6.788;2023-02-17T15:04:41;5.60;;;4.37;;
7845;SDS011;3968;51.424;6.788;2023-02-17T15:07:13;5.57;;;4.50;;
7845;SDS011;3968;51.424;6.788;2023-02-17T15:09:42;6.77;;;4.30;;
7845;SDS011;3968;51.424;6.788;2023-02-17T15:12:13;5.63;;;4.40;;
7845;SDS011;3968;51.424;6.788;2023-02-17T15:14:41;7.00;;;5.17;;
7845;SDS011;3968;51.424;6.788;2023-02-17T15:17:07;7.50;;;6.53;;
7845;SDS011;3968;51.424;6.788;2023-02-17T15:19:33;19.93;;;11.07;;
7845;SDS011;3968;51.424;6.788;2023-02-17T15:21:59;24.33;;;13.80;;
7845;SDS011;3968;51.424;6.788;2023-02-17T15:24:27;26.03;;;14.00;;
7845;SDS011;3968;51.424;6.788;2023-02-17T15:26:55;19.20;;;11.40;;
7845;SDS011;3968;51.424;6.788;2023-02-17T15:29:22;12.17;;;7.73;;
7845;SDS011;3968;51.424;6.788;2023-02-17T15:31:49;7.43;;;5.60;;
7845;SDS011;3968;51.424;6.788;2023-02-17T15:34:17;5.60;;;4.80;;
7845;SDS011;3968;51.424;6.788;2023-02-17T15:36:45;5.43;;;4.90;;
7845;SDS011;3968;51.424;6.788;2023-02-17T15:39:11;244.33;;;175.60;;
7845;SDS011;3968;51.424;6.788;2023-02-17T15:41:38;271.33;;;187.63;;
7845;SDS011;3968;51.424;6.788;2023-02-17T15:44:05;163.70;;;112.27;;
7845;SDS011;3968;51.424;6.788;2023-02-17T15:46:36;167.17;;;122.93;;
7845;SDS011;3968;51.424;6.788;2023-02-17T15:49:03;139.50;;;95.10;;
7845;SDS011;3968;51.424;6.788;2023-02-17T15:51:29;49.72;;;34.25;;
7845;SDS011;3968;51.424;6.788;2023-02-17T15:53:55;35.20;;;27.27;;
7845;SDS011;3968;51.424;6.788;2023-02-17T15:56:22;24.80;;;18.87;;
7845;SDS011;3968;51.424;6.788;2023-02-17T15:58:50;20.77;;;14.73;;
7845;SDS011;3968;51.424;6.788;2023-02-17T16:03:53;9.10;;;7.00;;
7845;SDS011;3968;51.424;6.788;2023-02-17T16:06:19;11.70;;;8.47;;
7845;SDS011;3968;51.424;6.788;2023-02-17T16:08:45;7.13;;;6.33;;
7845;SDS011;3968;51.424;6.788;2023-02-17T16:11:11;8.73;;;5.60;;
7845;SDS011;3968;51.424;6.788;2023-02-17T16:13:38;4.47;;;4.07;;
7845;SDS011;3968;51.424;6.788;2023-02-17T16:16:05;7.33;;;4.23;;
7845;SDS011;3968;51.424;6.788;2023-02-17T16:18:39;7.68;;;4.72;;
7845;SDS011;3968;51.424;6.788;2023-02-17T16:21:05;4.87;;;3.90;;
7845;SDS011;3968;51.424;6.788;2023-02-17T16:23:30;4.93;;;4.43;;
7845;SDS011;3968;51.424;6.788;2023-02-17T16:25:56;4.65;;;4.25;;
7845;SDS011;3968;51.424;6.788;2023-02-17T16:28:23;6.53;;;4.93;;
7845;SDS011;3968;51.424;6.788;2023-02-17T16:30:48;5.73;;;4.90;;
7845;SDS011;3968;51.424;6.788;2023-02-17T16:33:14;6.43;;;5.13;;
7845;SDS011;3968;51.424;6.788;2023-02-17T16:35:40;6.10;;;4.70;;
7845;SDS011;3968;51.424;6.788;2023-02-17T16:38:10;7.50;;;5.37;;
7845;SDS011;3968;51.424;6.788;2023-02-17T16:40:43;7.80;;;5.50;;
7845;SDS011;3968;51.424;6.788;2023-02-17T16:43:14;6.17;;;5.27;;
7845;SDS011;3968;51.424;6.788;2023-02-17T16:45:57;7.37;;;5.70;;
7845;SDS011;3968;51.424;6.788;2023-02-17T16:48:26;5.90;;;5.40;;
7845;SDS011;3968;51.424;6.788;2023-02-17T16:50:53;7.37;;;5.97;;
7845;SDS011;3968;51.424;6.788;2023-02-17T16:53:19;10.38;;;5.45;;
7845;SDS011;3968;51.424;6.788;2023-02-17T16:55:45;6.57;;;5.90;;
7845;SDS011;3968;51.424;6.788;2023-02-17T16:58:14;6.20;;;5.60;;